sensor_id;sensor_type;location;lat;lon;timestamp;P1;P2;P0
69224;PMS1003;56333;51.306;17.056;2023-02-12T00:01:36;18.30;9.60;
69224;PMS1003;56333;51.306;17.056;2023-02-12T00:03:07;19.80;9.40;
69224;PMS1003;56333;51.306;17.056;2023-02-12T00:04:39;14.00;8.80;
69224;PMS1003;56333;51.306;17.056;2023-02-12T00:06:13;15.10;8.90;
69224;PMS1003;56333;51.306;17.056;2023-02-12T00:07:43;15.80;8.90;
69224;PMS1003;56333;51.306;17.056;2023-02-12T00:09:12;15.70;9.00;
69224;PMS1003;56333;51.306;17.056;2023-02-12T00:10:43;15.70;8.90;
69224;PMS1003;56333;51.306;17.056;2023-02-12T00:12:15;16.80;9.50;
69224;PMS1003;56333;51.306;17.056;2023-02-12T00:13:44;15.40;9.20;
69224;PMS1003;56333;51.306;17.056;2023-02-12T00:15:15;17.40;9.30;
69224;PMS1003;56333;51.306;17.056;2023-02-12T00:16:45;15.80;9.10;
69224;PMS1003;56333;51.306;17.056;2023-02-12T00:18:17;17.60;8.80;
69224;PMS1003;56333;51.306;17.056;2023-02-12T00:19:48;17.10;8.90;
69224;PMS1003;56333;51.306;17.056;2023-02-12T00:22:46;13.90;8.50;
69224;PMS1003;56333;51.306;17.056;2023-02-12T00:24:15;19.00;9.00;
69224;PMS1003;56333;51.306;17.056;2023-02-12T00:25:44;17.90;8.90;
69224;PMS1003;56333;51.306;17.056;2023-02-12T00:27:15;17.80;9.40;
69224;PMS1003;56333;51.306;17.056;2023-02-12T00:28:44;17.60;9.10;
69224;PMS1003;56333;51.306;17.056;2023-02-12T00:30:14;15.70;8.90;
69224;PMS1003;56333;51.306;17.056;2023-02-12T00:31:45;18.90;9.10;
69224;PMS1003;56333;51.306;17.056;2023-02-12T00:33:15;19.00;9.10;
69224;PMS1003;56333;51.306;17.056;2023-02-12T00:34:49;18.80;8.40;
69224;PMS1003;56333;51.306;17.056;2023-02-12T00:36:24;17.90;8.20;
69224;PMS1003;56333;51.306;17.056;2023-02-12T00:37:53;15.60;7.90;
69224;PMS1003;56333;51.306;17.056;2023-02-12T00:39:24;16.70;8.70;
69224;PMS1003;56333;51.306;17.056;2023-02-12T00:40:54;20.60;9.20;
69224;PMS1003;56333;51.306;17.056;2023-02-12T00:42:23;18.30;8.60;
69224;PMS1003;56333;51.306;17.056;2023-02-12T00:43:55;17.20;8.60;
69224;PMS1003;56333;51.306;17.056;2023-02-12T00:45:39;17.10;8.20;
69224;PMS1003;56333;51.306;17.056;2023-02-12T00:47:14;19.70;8.50;
69224;PMS1003;56333;51.306;17.056;2023-02-12T00:48:44;15.40;7.90;
69224;PMS1003;56333;51.306;17.056;2023-02-12T00:50:17;17.80;8.10;
69224;PMS1003;56333;51.306;17.056;2023-02-12T00:51:46;16.10;8.00;
69224;PMS1003;56333;51.306;17.056;2023-02-12T00:53:18;16.80;7.60;
69224;PMS1003;56333;51.306;17.056;2023-02-12T00:54:48;18.30;8.60;
69224;PMS1003;56333;51.306;17.056;2023-02-12T00:56:17;16.90;8.30;
69224;PMS1003;56333;51.306;17.056;2023-02-12T00:57:48;19.90;9.50;
69224;PMS1003;56333;51.306;17.056;2023-02-12T00:59:17;16.60;9.80;
69224;PMS1003;56333;51.306;17.056;2023-02-12T01:00:46;17.40;9.30;
69224;PMS1003;56333;51.306;17.056;2023-02-12T01:02:16;21.30;9.40;
69224;PMS1003;56333;51.306;17.056;2023-02-12T01:03:46;17.20;8.70;
69224;PMS1003;56333;51.306;17.056;2023-02-12T01:05:16;18.70;9.00;
69224;PMS1003;56333;51.306;17.056;2023-02-12T01:06:49;15.30;8.10;
69224;PMS1003;56333;51.306;17.056;2023-02-12T01:08:21;14.20;7.70;
69224;PMS1003;56333;51.306;17.056;2023-02-12T01:09:53;17.70;9.00;
69224;PMS1003;56333;51.306;17.056;2023-02-12T01:11:26;16.50;9.00;
69224;PMS1003;56333;51.306;17.056;2023-02-12T01:12:58;16.70;8.50;
69224;PMS1003;56333;51.306;17.056;2023-02-12T01:14:28;18.00;8.70;
69224;PMS1003;56333;51.306;17.056;2023-02-12T01:16:17;18.30;9.60;
69224;PMS1003;56333;51.306;17.056;2023-02-12T01:17:55;19.40;8.80;
69224;PMS1003;56333;51.306;17.056;2023-02-12T01:19:27;20.90;9.10;
69224;PMS1003;56333;51.306;17.056;2023-02-12T01:20:56;19.40;8.90;
69224;PMS1003;56333;51.306;17.056;2023-02-12T01:22:34;19.10;9.10;
69224;PMS1003;56333;51.306;17.056;2023-02-12T01:24:05;17.10;7.90;
69224;PMS1003;56333;51.306;17.056;2023-02-12T01:25:38;16.70;8.60;
69224;PMS1003;56333;51.306;17.056;2023-02-12T01:27:09;15.80;8.30;
69224;PMS1003;56333;51.306;17.056;2023-02-12T01:28:41;19.50;8.50;
69224;PMS1003;56333;51.306;17.056;2023-02-12T01:30:16;18.10;8.50;
69224;PMS1003;56333;51.306;17.056;2023-02-12T01:31:50;18.90;8.50;
69224;PMS1003;56333;51.306;17.056;2023-02-12T01:33:18;17.70;8.70;
69224;PMS1003;56333;51.306;17.056;2023-02-12T01:34:47;18.60;8.60;
69224;PMS1003;56333;51.306;17.056;2023-02-12T01:36:23;19.00;8.30;
69224;PMS1003;56333;51.306;17.056;2023-02-12T01:37:55;19.70;8.00;
69224;PMS1003;56333;51.306;17.056;2023-02-12T01:39:24;17.70;8.50;
69224;PMS1003;56333;51.306;17.056;2023-02-12T01:40:53;18.40;8.40;
69224;PMS1003;56333;51.306;17.056;2023-02-12T01:42:31;18.40;9.00;
69224;PMS1003;56333;51.306;17.056;2023-02-12T01:44:15;14.80;8.40;
69224;PMS1003;56333;51.306;17.056;2023-02-12T01:45:52;18.70;9.20;
69224;PMS1003;56333;51.306;17.056;2023-02-12T01:47:26;18.20;8.80;
69224;PMS1003;56333;51.306;17.056;2023-02-12T01:49:01;19.50;9.10;
69224;PMS1003;56333;51.306;17.056;2023-02-12T01:50:33;20.00;9.40;
69224;PMS1003;56333;51.306;17.056;2023-02-12T01:52:07;19.00;9.50;
69224;PMS1003;56333;51.306;17.056;2023-02-12T01:53:43;20.20;8.80;
69224;PMS1003;56333;51.306;17.056;2023-02-12T01:55:16;18.60;8.50;
69224;PMS1003;56333;51.306;17.056;2023-02-12T01:56:47;19.70;9.40;
69224;PMS1003;56333;51.306;17.056;2023-02-12T01:58:18;16.90;8.30;
69224;PMS1003;56333;51.306;17.056;2023-02-12T01:59:52;15.60;8.60;
69224;PMS1003;56333;51.306;17.056;2023-02-12T02:01:26;14.70;8.40;
69224;PMS1003;56333;51.306;17.056;2023-02-12T02:03:00;20.10;8.60;
69224;PMS1003;56333;51.306;17.056;2023-02-12T02:04:32;17.70;8.70;
69224;PMS1003;56333;51.306;17.056;2023-02-12T02:06:09;16.50;8.60;
69224;PMS1003;56333;51.306;17.056;2023-02-12T02:07:40;19.90;9.60;
69224;PMS1003;56333;51.306;17.056;2023-02-12T02:09:10;16.40;8.30;
69224;PMS1003;56333;51.306;17.056;2023-02-12T02:10:39;18.70;8.80;
69224;PMS1003;56333;51.306;17.056;2023-02-12T02:12:08;17.70;9.70;
69224;PMS1003;56333;51.306;17.056;2023-02-12T02:13:56;16.70;8.10;
69224;PMS1003;56333;51.306;17.056;2023-02-12T02:15:45;16.90;7.90;
69224;PMS1003;56333;51.306;17.056;2023-02-12T02:17:48;18.10;7.80;
69224;PMS1003;56333;51.306;17.056;2023-02-12T02:19:32;18.20;8.70;
69224;PMS1003;56333;51.306;17.056;2023-02-12T02:21:45;17.00;7.60;
69224;PMS1003;56333;51.306;17.056;2023-02-12T02:23:55;20.70;8.60;
69224;PMS1003;56333;51.306;17.056;2023-02-12T02:26:25;19.70;8.20;
69224;PMS1003;56333;51.306;17.056;2023-02-12T02:28:15;22.30;9.00;
69224;PMS1003;56333;51.306;17.056;2023-02-12T02:30:25;20.80;8.40;
69224;PMS1003;56333;51.306;17.056;2023-02-12T02:32:04;19.70;8.70;
69224;PMS1003;56333;51.306;17.056;2023-02-12T02:33:43;20.00;8.10;
69224;PMS1003;56333;51.306;17.056;2023-02-12T02:35:27;15.20;7.80;
69224;PMS1003;56333;51.306;17.056;2023-02-12T02:37:10;20.00;8.50;
69224;PMS1003;56333;51.306;17.056;2023-02-12T02:38:47;20.60;7.70;
69224;PMS1003;56333;51.306;17.056;2023-02-12T02:40:21;15.90;7.80;
69224;PMS1003;56333;51.306;17.056;2023-02-12T02:41:56;25.40;8.50;
69224;PMS1003;56333;51.306;17.056;2023-02-12T02:43:32;20.90;8.80;
69224;PMS1003;56333;51.306;17.056;2023-02-12T02:45:10;20.10;9.00;
69224;PMS1003;56333;51.306;17.056;2023-02-12T02:46:45;21.80;8.50;
69224;PMS1003;56333;51.306;17.056;2023-02-12T02:48:18;19.70;8.50;
69224;PMS1003;56333;51.306;17.056;2023-02-12T02:49:53;19.80;8.30;
69224;PMS1003;56333;51.306;17.056;2023-02-12T02:51:28;19.80;8.50;
69224;PMS1003;56333;51.306;17.056;2023-02-12T02:53:03;21.50;8.70;
69224;PMS1003;56333;51.306;17.056;2023-02-12T02:54:36;19.90;8.50;
69224;PMS1003;56333;51.306;17.056;2023-02-12T02:56:12;17.80;8.40;
69224;PMS1003;56333;51.306;17.056;2023-02-12T02:57:48;20.90;8.60;
69224;PMS1003;56333;51.306;17.056;2023-02-12T02:59:25;19.70;8.80;
69224;PMS1003;56333;51.306;17.056;2023-02-12T03:01:01;23.70;9.60;
69224;PMS1003;56333;51.306;17.056;2023-02-12T03:02:33;20.10;8.50;
69224;PMS1003;56333;51.306;17.056;2023-02-12T03:04:07;22.50;9.20;
69224;PMS1003;56333;51.306;17.056;2023-02-12T03:05:44;18.80;8.40;
69224;PMS1003;56333;51.306;17.056;2023-02-12T03:07:19;22.30;9.10;
69224;PMS1003;56333;51.306;17.056;2023-02-12T03:08:54;25.00;9.70;
69224;PMS1003;56333;51.306;17.056;2023-02-12T03:10:28;22.00;9.40;
69224;PMS1003;56333;51.306;17.056;2023-02-12T03:12:07;22.20;9.40;
69224;PMS1003;56333;51.306;17.056;2023-02-12T03:13:44;20.60;9.40;
69224;PMS1003;56333;51.306;17.056;2023-02-12T03:15:20;27.90;10.10;
69224;PMS1003;56333;51.306;17.056;2023-02-12T03:16:59;25.00;10.70;
69224;PMS1003;56333;51.306;17.056;2023-02-12T03:18:35;20.70;10.60;
69224;PMS1003;56333;51.306;17.056;2023-02-12T03:20:12;24.60;10.80;
69224;PMS1003;56333;51.306;17.056;2023-02-12T03:21:49;23.40;10.90;
69224;PMS1003;56333;51.306;17.056;2023-02-12T03:23:24;20.40;9.80;
69224;PMS1003;56333;51.306;17.056;2023-02-12T03:25:00;25.90;10.10;
69224;PMS1003;56333;51.306;17.056;2023-02-12T03:26:42;28.40;10.10;
69224;PMS1003;56333;51.306;17.056;2023-02-12T03:28:17;21.20;9.90;
69224;PMS1003;56333;51.306;17.056;2023-02-12T03:29:47;23.60;10.10;
69224;PMS1003;56333;51.306;17.056;2023-02-12T03:31:23;20.60;9.40;
69224;PMS1003;56333;51.306;17.056;2023-02-12T03:33:07;22.50;10.50;
69224;PMS1003;56333;51.306;17.056;2023-02-12T03:34:48;26.60;11.10;
69224;PMS1003;56333;51.306;17.056;2023-02-12T03:36:28;27.40;11.00;
69224;PMS1003;56333;51.306;17.056;2023-02-12T03:38:07;30.00;11.40;
69224;PMS1003;56333;51.306;17.056;2023-02-12T03:39:47;23.40;10.30;
69224;PMS1003;56333;51.306;17.056;2023-02-12T03:42:58;27.10;9.30;
69224;PMS1003;56333;51.306;17.056;2023-02-12T03:44:43;20.80;9.40;
69224;PMS1003;56333;51.306;17.056;2023-02-12T03:46:21;24.00;9.80;
69224;PMS1003;56333;51.306;17.056;2023-02-12T03:48:00;26.40;9.50;
69224;PMS1003;56333;51.306;17.056;2023-02-12T03:49:37;28.30;9.50;
69224;PMS1003;56333;51.306;17.056;2023-02-12T03:51:16;25.20;9.70;
69224;PMS1003;56333;51.306;17.056;2023-02-12T03:52:51;22.70;9.70;
69224;PMS1003;56333;51.306;17.056;2023-02-12T03:54:21;27.30;10.20;
69224;PMS1003;56333;51.306;17.056;2023-02-12T03:55:55;27.30;9.70;
69224;PMS1003;56333;51.306;17.056;2023-02-12T03:57:28;22.70;9.80;
69224;PMS1003;56333;51.306;17.056;2023-02-12T03:59:00;24.70;9.40;
69224;PMS1003;56333;51.306;17.056;2023-02-12T04:00:30;28.20;9.50;
69224;PMS1003;56333;51.306;17.056;2023-02-12T04:01:59;28.20;10.40;
69224;PMS1003;56333;51.306;17.056;2023-02-12T04:03:29;24.00;9.90;
69224;PMS1003;56333;51.306;17.056;2023-02-12T04:05:07;29.10;9.80;
69224;PMS1003;56333;51.306;17.056;2023-02-12T04:06:44;28.00;10.50;
69224;PMS1003;56333;51.306;17.056;2023-02-12T04:08:14;24.00;10.70;
69224;PMS1003;56333;51.306;17.056;2023-02-12T04:09:43;28.80;10.90;
69224;PMS1003;56333;51.306;17.056;2023-02-12T04:11:27;35.80;10.60;
69224;PMS1003;56333;51.306;17.056;2023-02-12T04:13:08;24.70;10.00;
69224;PMS1003;56333;51.306;17.056;2023-02-12T04:14:51;27.10;9.70;
69224;PMS1003;56333;51.306;17.056;2023-02-12T04:16:31;26.30;11.00;
69224;PMS1003;56333;51.306;17.056;2023-02-12T04:18:10;27.40;10.00;
69224;PMS1003;56333;51.306;17.056;2023-02-12T04:19:52;25.40;9.40;
69224;PMS1003;56333;51.306;17.056;2023-02-12T04:21:43;25.90;10.30;
69224;PMS1003;56333;51.306;17.056;2023-02-12T04:23:39;31.90;10.90;
69224;PMS1003;56333;51.306;17.056;2023-02-12T04:25:24;22.30;10.10;
69224;PMS1003;56333;51.306;17.056;2023-02-12T04:27:05;23.30;9.70;
69224;PMS1003;56333;51.306;17.056;2023-02-12T04:28:51;27.60;11.50;
69224;PMS1003;56333;51.306;17.056;2023-02-12T04:30:33;30.70;12.30;
69224;PMS1003;56333;51.306;17.056;2023-02-12T04:32:13;29.80;9.60;
69224;PMS1003;56333;51.306;17.056;2023-02-12T04:33:51;23.50;10.10;
69224;PMS1003;56333;51.306;17.056;2023-02-12T04:35:29;25.70;10.80;
69224;PMS1003;56333;51.306;17.056;2023-02-12T04:37:03;24.50;10.20;
69224;PMS1003;56333;51.306;17.056;2023-02-12T04:38:37;27.20;9.90;
69224;PMS1003;56333;51.306;17.056;2023-02-12T04:40:16;28.40;11.10;
69224;PMS1003;56333;51.306;17.056;2023-02-12T04:41:45;25.20;10.20;
69224;PMS1003;56333;51.306;17.056;2023-02-12T04:43:15;29.00;10.90;
69224;PMS1003;56333;51.306;17.056;2023-02-12T04:44:55;30.30;11.00;
69224;PMS1003;56333;51.306;17.056;2023-02-12T04:46:24;25.40;10.00;
69224;PMS1003;56333;51.306;17.056;2023-02-12T04:47:53;27.90;10.50;
69224;PMS1003;56333;51.306;17.056;2023-02-12T04:49:23;25.40;10.80;
69224;PMS1003;56333;51.306;17.056;2023-02-12T04:50:52;26.10;10.00;
69224;PMS1003;56333;51.306;17.056;2023-02-12T04:52:21;22.90;9.80;
69224;PMS1003;56333;51.306;17.056;2023-02-12T04:53:49;26.10;10.10;
69224;PMS1003;56333;51.306;17.056;2023-02-12T04:55:18;23.10;10.80;
69224;PMS1003;56333;51.306;17.056;2023-02-12T04:56:48;25.60;10.60;
69224;PMS1003;56333;51.306;17.056;2023-02-12T04:58:18;25.00;10.20;
69224;PMS1003;56333;51.306;17.056;2023-02-12T04:59:46;29.80;11.00;
69224;PMS1003;56333;51.306;17.056;2023-02-12T05:01:16;27.10;11.40;
69224;PMS1003;56333;51.306;17.056;2023-02-12T05:02:44;30.70;11.80;
69224;PMS1003;56333;51.306;17.056;2023-02-12T05:04:15;26.80;10.80;
69224;PMS1003;56333;51.306;17.056;2023-02-12T05:07:12;27.80;12.30;
69224;PMS1003;56333;51.306;17.056;2023-02-12T05:08:41;32.40;13.70;
69224;PMS1003;56333;51.306;17.056;2023-02-12T05:10:12;28.90;10.80;
69224;PMS1003;56333;51.306;17.056;2023-02-12T05:13:10;25.80;10.20;
69224;PMS1003;56333;51.306;17.056;2023-02-12T05:14:39;32.90;12.80;
69224;PMS1003;56333;51.306;17.056;2023-02-12T05:16:09;26.30;9.90;
69224;PMS1003;56333;51.306;17.056;2023-02-12T05:17:38;25.20;11.60;
69224;PMS1003;56333;51.306;17.056;2023-02-12T05:19:07;30.30;12.80;
69224;PMS1003;56333;51.306;17.056;2023-02-12T05:20:35;27.70;12.40;
69224;PMS1003;56333;51.306;17.056;2023-02-12T05:22:05;28.90;12.30;
69224;PMS1003;56333;51.306;17.056;2023-02-12T05:23:36;30.50;11.50;
69224;PMS1003;56333;51.306;17.056;2023-02-12T05:25:06;31.30;13.50;
69224;PMS1003;56333;51.306;17.056;2023-02-12T05:26:37;31.10;14.50;
69224;PMS1003;56333;51.306;17.056;2023-02-12T05:28:05;30.50;11.80;
69224;PMS1003;56333;51.306;17.056;2023-02-12T05:29:34;29.20;13.40;
69224;PMS1003;56333;51.306;17.056;2023-02-12T05:31:04;29.40;12.50;
69224;PMS1003;56333;51.306;17.056;2023-02-12T05:32:34;29.30;12.10;
69224;PMS1003;56333;51.306;17.056;2023-02-12T05:34:05;29.70;12.50;
69224;PMS1003;56333;51.306;17.056;2023-02-12T05:37:03;30.30;12.00;
69224;PMS1003;56333;51.306;17.056;2023-02-12T05:38:33;31.10;11.80;
69224;PMS1003;56333;51.306;17.056;2023-02-12T05:40:02;25.90;11.30;
69224;PMS1003;56333;51.306;17.056;2023-02-12T05:41:32;25.50;11.20;
69224;PMS1003;56333;51.306;17.056;2023-02-12T05:43:01;31.80;12.90;
69224;PMS1003;56333;51.306;17.056;2023-02-12T05:44:30;33.10;14.30;
69224;PMS1003;56333;51.306;17.056;2023-02-12T05:46:01;29.60;13.20;
69224;PMS1003;56333;51.306;17.056;2023-02-12T05:47:30;32.00;13.10;
69224;PMS1003;56333;51.306;17.056;2023-02-12T05:48:59;29.00;13.10;
69224;PMS1003;56333;51.306;17.056;2023-02-12T05:50:28;29.70;11.80;
69224;PMS1003;56333;51.306;17.056;2023-02-12T05:52:06;28.40;12.80;
69224;PMS1003;56333;51.306;17.056;2023-02-12T05:53:36;31.50;12.50;
69224;PMS1003;56333;51.306;17.056;2023-02-12T05:55:06;41.50;16.40;
69224;PMS1003;56333;51.306;17.056;2023-02-12T05:56:37;28.00;12.30;
69224;PMS1003;56333;51.306;17.056;2023-02-12T05:58:09;28.90;12.30;
69224;PMS1003;56333;51.306;17.056;2023-02-12T05:59:38;31.90;12.80;
69224;PMS1003;56333;51.306;17.056;2023-02-12T06:01:13;31.80;13.90;
69224;PMS1003;56333;51.306;17.056;2023-02-12T06:02:43;28.10;12.50;
69224;PMS1003;56333;51.306;17.056;2023-02-12T06:04:20;29.50;13.60;
69224;PMS1003;56333;51.306;17.056;2023-02-12T06:05:53;29.70;13.40;
69224;PMS1003;56333;51.306;17.056;2023-02-12T06:07:22;31.00;14.80;
69224;PMS1003;56333;51.306;17.056;2023-02-12T06:08:51;31.00;13.60;
69224;PMS1003;56333;51.306;17.056;2023-02-12T06:10:21;37.00;16.70;
69224;PMS1003;56333;51.306;17.056;2023-02-12T06:11:49;34.70;14.70;
69224;PMS1003;56333;51.306;17.056;2023-02-12T06:13:20;40.80;16.60;
69224;PMS1003;56333;51.306;17.056;2023-02-12T06:14:49;31.80;14.40;
69224;PMS1003;56333;51.306;17.056;2023-02-12T06:16:24;29.90;11.70;
69224;PMS1003;56333;51.306;17.056;2023-02-12T06:17:54;28.60;11.60;
69224;PMS1003;56333;51.306;17.056;2023-02-12T06:19:23;32.90;13.10;
69224;PMS1003;56333;51.306;17.056;2023-02-12T06:20:52;21.70;10.30;
69224;PMS1003;56333;51.306;17.056;2023-02-12T06:22:21;27.30;10.70;
69224;PMS1003;56333;51.306;17.056;2023-02-12T06:23:50;26.50;10.60;
69224;PMS1003;56333;51.306;17.056;2023-02-12T06:25:20;27.20;11.10;
69224;PMS1003;56333;51.306;17.056;2023-02-12T06:26:51;31.30;13.60;
69224;PMS1003;56333;51.306;17.056;2023-02-12T06:29:48;33.90;14.10;
69224;PMS1003;56333;51.306;17.056;2023-02-12T06:31:27;42.10;16.40;
69224;PMS1003;56333;51.306;17.056;2023-02-12T06:32:58;32.10;14.10;
69224;PMS1003;56333;51.306;17.056;2023-02-12T06:34:27;39.20;17.60;
69224;PMS1003;56333;51.306;17.056;2023-02-12T06:35:57;45.90;18.90;
69224;PMS1003;56333;51.306;17.056;2023-02-12T06:38:59;40.60;16.00;
69224;PMS1003;56333;51.306;17.056;2023-02-12T06:40:28;40.90;17.40;
69224;PMS1003;56333;51.306;17.056;2023-02-12T06:42:06;39.20;16.70;
69224;PMS1003;56333;51.306;17.056;2023-02-12T06:43:47;43.60;19.70;
69224;PMS1003;56333;51.306;17.056;2023-02-12T06:45:17;44.60;19.70;
69224;PMS1003;56333;51.306;17.056;2023-02-12T06:46:45;43.70;19.80;
69224;PMS1003;56333;51.306;17.056;2023-02-12T06:48:15;44.20;19.40;
69224;PMS1003;56333;51.306;17.056;2023-02-12T06:49:44;46.10;20.10;
69224;PMS1003;56333;51.306;17.056;2023-02-12T06:51:15;45.60;18.80;
69224;PMS1003;56333;51.306;17.056;2023-02-12T06:52:46;39.40;17.90;
69224;PMS1003;56333;51.306;17.056;2023-02-12T06:54:17;33.10;14.40;
69224;PMS1003;56333;51.306;17.056;2023-02-12T06:55:45;42.90;15.90;
69224;PMS1003;56333;51.306;17.056;2023-02-12T06:57:18;34.60;14.10;
69224;PMS1003;56333;51.306;17.056;2023-02-12T06:58:52;30.80;12.60;
69224;PMS1003;56333;51.306;17.056;2023-02-12T07:00:24;30.50;13.50;
69224;PMS1003;56333;51.306;17.056;2023-02-12T07:01:54;27.70;12.70;
69224;PMS1003;56333;51.306;17.056;2023-02-12T07:03:24;30.20;13.40;
69224;PMS1003;56333;51.306;17.056;2023-02-12T07:04:54;32.10;14.60;
69224;PMS1003;56333;51.306;17.056;2023-02-12T07:06:26;32.70;14.40;
69224;PMS1003;56333;51.306;17.056;2023-02-12T07:08:03;33.00;13.90;
69224;PMS1003;56333;51.306;17.056;2023-02-12T07:09:42;35.50;14.90;
69224;PMS1003;56333;51.306;17.056;2023-02-12T07:11:34;31.80;13.20;
69224;PMS1003;56333;51.306;17.056;2023-02-12T07:13:27;32.40;13.20;
69224;PMS1003;56333;51.306;17.056;2023-02-12T07:15:24;30.20;13.90;
69224;PMS1003;56333;51.306;17.056;2023-02-12T07:17:42;31.20;14.40;
69224;PMS1003;56333;51.306;17.056;2023-02-12T07:19:45;32.10;14.40;
69224;PMS1003;56333;51.306;17.056;2023-02-12T07:24:08;33.60;15.30;
69224;PMS1003;56333;51.306;17.056;2023-02-12T07:26:22;33.80;13.40;
69224;PMS1003;56333;51.306;17.056;2023-02-12T07:28:06;36.70;14.10;
69224;PMS1003;56333;51.306;17.056;2023-02-12T07:30:03;62.10;33.70;
69224;PMS1003;56333;51.306;17.056;2023-02-12T07:31:48;32.20;14.80;
